Time;durP1;ratioP1;P1;durP2;ratioP2;P2;SDS_P1;SDS_P2;PMS_P1;PMS_P2;Temp;Humidity;BMP_temperature;BMP_pressure;BME280_temperature;BME280_humidity;BME280_pressure;Samples;Min_cycle;Max_cycle;Signal;HPM_P1;HPM_P2
2021/12/14 00:00:46;;;;;;;12.48;7.63;;;6.20;99.90;;;;;;5055263;28;20039;-71
2021/12/14 00:03:19;;;;;;;11.98;7.65;;;6.10;99.90;;;;;;5070551;28;20051;-71
2021/12/14 00:05:48;;;;;;;13.20;8.43;;;6.10;99.90;;;;;;5062535;28;20012;-71
2021/12/14 00:08:15;;;;;;;12.23;7.78;;;6.10;99.90;;;;;;5064351;28;20029;-71
2021/12/14 00:10:57;;;;;;;13.05;8.38;;;6.20;99.90;;;;;;5070984;28;20466;-71
2021/12/14 00:13:54;;;;;;;12.40;7.65;;;6.20;99.90;;;;;;5063954;28;20031;-71
2021/12/14 00:16:13;;;;;;;13.35;8.02;;;6.20;99.90;;;;;;5064293;28;20270;-71
2021/12/14 00:18:40;;;;;;;11.90;7.47;;;6.20;99.90;;;;;;5056875;28;20024;-71
2021/12/14 00:21:24;;;;;;;10.10;6.82;;;6.20;99.90;;;;;;5059103;28;20470;-71
2021/12/14 00:24:13;;;;;;;11.40;7.57;;;6.20;99.90;;;;;;5064955;28;20124;-71
2021/12/14 00:26:48;;;;;;;11.68;7.43;;;6.20;99.90;;;;;;5061727;28;20424;-71
2021/12/14 00:29:22;;;;;;;12.55;7.47;;;6.20;99.90;;;;;;5065413;28;20031;-71
2021/12/14 00:31:50;;;;;;;13.65;8.10;;;6.30;99.90;;;;;;5061477;28;20024;-71
2021/12/14 00:34:23;;;;;;;12.07;7.65;;;6.20;99.90;;;;;;5063701;28;20042;-72
2021/12/14 00:36:51;;;;;;;13.25;7.72;;;6.30;99.90;;;;;;5057795;28;20020;-72
2021/12/14 00:39:18;;;;;;;14.32;8.10;;;6.30;99.90;;;;;;5069638;28;20089;-71
2021/12/14 00:41:43;;;;;;;;;;;6.30;99.90;;;;;;5063566;28;20711;-71
2021/12/14 00:44:10;;;;;;;12.55;7.60;;;6.30;99.90;;;;;;5065053;28;19969;-71
2021/12/14 00:46:36;;;;;;;;;;;6.30;99.90;;;;;;5074190;28;20484;-71
2021/12/14 00:49:07;;;;;;;11.93;7.32;;;6.30;99.90;;;;;;5061431;28;19904;-71
2021/12/14 00:51:33;;;;;;;12.27;7.95;;;6.30;99.90;;;;;;5071328;28;20028;-71
2021/12/14 00:54:03;;;;;;;12.48;7.95;;;6.30;99.90;;;;;;5060128;28;20030;-72
2021/12/14 00:56:33;;;;;;;12.55;7.93;;;6.30;99.90;;;;;;5061065;28;21044;-71
2021/12/14 00:59:00;;;;;;;12.40;7.70;;;6.30;99.90;;;;;;5056784;28;20024;-71
2021/12/14 01:01:31;;;;;;;12.25;7.65;;;6.20;99.90;;;;;;5059309;28;20017;-72
2021/12/14 01:04:04;;;;;;;12.27;8.23;;;6.30;99.90;;;;;;5065304;28;20510;-72
2021/12/14 01:06:33;;;;;;;10.85;6.90;;;6.30;99.90;;;;;;5057796;28;20035;-71
2021/12/14 01:09:02;;;;;;;12.63;7.63;;;6.20;99.90;;;;;;5066378;28;20022;-72
2021/12/14 01:11:36;;;;;;;11.57;7.00;;;6.30;99.90;;;;;;5061142;28;20028;-72
2021/12/14 01:14:31;;;;;;;11.18;7.30;;;6.30;99.90;;;;;;5064660;28;20016;-72
2021/12/14 01:17:27;;;;;;;10.40;6.70;;;6.30;99.90;;;;;;5067451;28;20270;-71
2021/12/14 01:19:58;;;;;;;11.88;7.45;;;6.30;99.90;;;;;;5060020;28;20066;-71
2021/12/14 01:25:17;;;;;;;11.70;7.10;;;6.30;99.90;;;;;;5067485;28;20031;-72
2021/12/14 01:27:52;;;;;;;12.63;7.95;;;6.30;99.90;;;;;;5068962;28;20031;-71
2021/12/14 01:30:28;;;;;;;9.98;6.57;;;6.40;99.90;;;;;;5062322;28;20032;-72
2021/12/14 01:33:01;;;;;;;11.70;7.63;;;6.40;99.90;;;;;;5063793;28;20480;-72
2021/12/14 01:35:30;;;;;;;10.10;6.85;;;6.40;99.90;;;;;;5073886;28;20016;-72
2021/12/14 01:38:05;;;;;;;10.88;6.95;;;6.40;99.90;;;;;;5059483;28;20027;-72
2021/12/14 01:40:54;;;;;;;11.05;7.03;;;6.40;99.90;;;;;;5067414;28;20054;-72
2021/12/14 01:43:24;;;;;;;12.45;7.32;;;6.40;99.90;;;;;;5071422;28;20446;-72
2021/12/14 01:45:50;;;;;;;12.57;7.40;;;6.40;99.90;;;;;;5073992;28;20027;-71
2021/12/14 01:48:16;;;;;;;14.20;7.72;;;6.40;99.90;;;;;;5069718;28;20078;-71
2021/12/14 01:50:49;;;;;;;12.73;7.68;;;6.40;99.90;;;;;;5063621;28;20024;-76
2021/12/14 01:53:16;;;;;;;12.77;7.95;;;6.40;99.90;;;;;;5062709;28;20016;-72
2021/12/14 01:55:50;;;;;;;11.77;7.53;;;6.40;99.90;;;;;;5068129;28;20031;-71
2021/12/14 01:58:17;;;;;;;12.02;7.88;;;6.40;99.90;;;;;;5069239;28;21618;-71
2021/12/14 02:00:50;;;;;;;12.48;7.50;;;6.40;99.90;;;;;;5069190;28;20434;-72
2021/12/14 02:03:18;;;;;;;13.77;8.40;;;6.40;99.90;;;;;;5069091;28;20028;-71
2021/12/14 02:05:51;;;;;;;11.77;7.30;;;6.40;99.90;;;;;;5072034;28;20031;-71
2021/12/14 02:08:25;;;;;;;13.38;7.75;;;6.40;99.90;;;;;;5068202;28;20052;-71
2021/12/14 02:10:52;;;;;;;11.45;7.75;;;6.40;99.90;;;;;;5064793;28;20103;-71
2021/12/14 02:13:42;;;;;;;15.05;8.00;;;6.30;99.90;;;;;;5068451;28;20021;-71
2021/12/14 02:16:12;;;;;;;12.98;7.63;;;6.40;99.90;;;;;;5074784;28;20032;-71
2021/12/14 02:18:44;;;;;;;13.35;7.65;;;6.40;99.90;;;;;;5071366;28;20034;-71
2021/12/14 02:21:13;;;;;;;10.93;7.20;;;6.40;99.90;;;;;;5062728;28;21040;-72
2021/12/14 02:23:44;;;;;;;12.18;7.97;;;6.40;99.90;;;;;;5066630;28;20758;-72
2021/12/14 02:26:13;;;;;;;11.82;7.35;;;6.40;99.90;;;;;;5062906;28;20906;-71
2021/12/14 02:28:39;;;;;;;11.40;7.38;;;6.40;99.90;;;;;;5066492;28;20031;-71
2021/12/14 02:31:09;;;;;;;10.55;7.00;;;6.40;99.90;;;;;;5062587;28;20020;-71
2021/12/14 02:33:38;;;;;;;11.73;7.63;;;6.40;99.90;;;;;;5063238;28;20047;-71
2021/12/14 02:36:26;;;;;;;10.70;6.68;;;6.40;99.90;;;;;;5063108;28;20021;-71
2021/12/14 02:39:04;;;;;;;;;;;6.40;99.90;;;;;;5070150;28;20047;-71
2021/12/14 02:41:31;;;;;;;13.52;6.85;;;6.40;99.90;;;;;;5065860;28;19908;-71
2021/12/14 02:43:58;;;;;;;11.88;6.80;;;6.40;99.90;;;;;;5059438;28;20028;-72
2021/12/14 02:46:40;;;;;;;12.05;7.75;;;6.40;99.90;;;;;;5073888;28;20028;-72
2021/12/14 02:49:10;;;;;;;12.05;7.28;;;6.40;99.90;;;;;;5060931;28;20081;-71
2021/12/14 02:51:46;;;;;;;12.13;7.40;;;6.40;99.90;;;;;;5065126;28;20063;-71
2021/12/14 02:54:19;;;;;;;11.75;7.00;;;6.50;99.90;;;;;;5061838;28;20591;-71
2021/12/14 02:56:48;;;;;;;11.73;6.80;;;6.40;99.90;;;;;;5062242;28;20060;-71
2021/12/14 02:59:37;;;;;;;12.75;7.45;;;6.40;99.90;;;;;;5058594;28;20016;-71
2021/12/14 03:02:07;;;;;;;10.38;6.57;;;6.40;99.90;;;;;;5055463;28;20032;-71
2021/12/14 03:04:40;;;;;;;10.85;6.63;;;6.50;99.90;;;;;;5067493;28;20031;-72
2021/12/14 03:07:07;;;;;;;12.75;6.90;;;6.50;99.90;;;;;;5065292;28;20111;-71
2021/12/14 03:09:53;;;;;;;11.93;7.65;;;6.50;99.90;;;;;;5067929;28;20020;-71
2021/12/14 03:12:32;;;;;;;11.80;7.35;;;6.50;99.90;;;;;;5064119;28;20028;-72
2021/12/14 03:15:07;;;;;;;13.05;7.80;;;6.50;99.90;;;;;;5071735;28;20023;-71
2021/12/14 03:17:33;;;;;;;11.75;7.57;;;6.50;99.90;;;;;;5059546;28;20101;-71
2021/12/14 03:20:10;;;;;;;12.45;8.02;;;6.50;99.90;;;;;;5062144;28;20020;-71
2021/12/14 03:22:45;;;;;;;12.68;8.40;;;6.50;99.90;;;;;;5067859;28;20097;-71
2021/12/14 03:25:13;;;;;;;13.55;8.13;;;6.50;99.90;;;;;;5062106;28;20011;-71
2021/12/14 03:27:42;;;;;;;12.52;7.32;;;6.50;99.90;;;;;;5062427;28;20028;-71
2021/12/14 03:30:32;;;;;;;14.40;8.05;;;6.40;99.90;;;;;;5056096;28;20343;-71
2021/12/14 03:33:07;;;;;;;12.30;7.22;;;6.40;99.90;;;;;;5063612;28;20012;-72
2021/12/14 03:35:39;;;;;;;11.63;7.18;;;6.40;99.90;;;;;;5068609;28;20117;-71
2021/12/14 03:38:12;;;;;;;11.07;6.90;;;6.50;99.90;;;;;;5061457;28;20016;-72
2021/12/14 03:40:38;;;;;;;11.82;6.65;;;6.50;99.90;;;;;;5068806;28;20027;-71
2021/12/14 03:43:04;;;;;;;9.77;6.45;;;6.50;99.90;;;;;;5063668;28;20015;-71
2021/12/14 03:45:31;;;;;;;12.80;7.22;;;6.50;99.90;;;;;;5072103;28;20511;-71
2021/12/14 03:48:00;;;;;;;10.20;6.93;;;6.50;99.90;;;;;;5062379;28;20024;-72
2021/12/14 03:50:41;;;;;;;10.95;7.00;;;6.50;99.90;;;;;;5065527;28;20024;-72
2021/12/14 03:53:11;;;;;;;12.52;7.00;;;6.50;99.90;;;;;;5062706;28;20377;-71
2021/12/14 03:55:44;;;;;;;12.13;7.47;;;6.50;99.90;;;;;;5067724;28;20027;-72
2021/12/14 03:58:15;;;;;;;12.13;7.93;;;6.50;99.90;;;;;;5061703;28;20021;-71
2021/12/14 04:00:56;;;;;;;12.48;8.25;;;6.50;99.90;;;;;;5065085;28;20081;-71
2021/12/14 04:03:24;;;;;;;11.43;7.05;;;6.50;99.90;;;;;;5065195;28;20215;-72
2021/12/14 04:05:51;;;;;;;10.93;6.82;;;6.50;99.90;;;;;;5070698;28;20509;-72
2021/12/14 04:08:20;;;;;;;12.70;7.40;;;6.50;99.90;;;;;;5063372;28;20022;-71
2021/12/14 04:10:48;;;;;;;12.20;7.00;;;6.50;99.90;;;;;;5070087;28;20023;-71
2021/12/14 04:13:18;;;;;;;11.70;7.50;;;6.50;99.90;;;;;;5064735;28;20040;-72
2021/12/14 04:15:44;;;;;;;13.07;6.75;;;6.50;99.90;;;;;;5067599;28;20728;-71
2021/12/14 04:18:10;;;;;;;11.27;6.97;;;6.50;99.90;;;;;;5057129;28;20027;-71
2021/12/14 04:20:38;;;;;;;11.97;7.10;;;6.50;99.90;;;;;;5061925;28;20028;-71
2021/12/14 04:23:12;;;;;;;10.85;6.43;;;6.60;99.90;;;;;;5059559;28;20012;-72
2021/12/14 04:25:40;;;;;;;10.27;6.55;;;6.50;99.90;;;;;;5064978;28;20709;-71
2021/12/14 04:28:10;;;;;;;10.85;6.60;;;6.60;99.90;;;;;;5059167;28;20067;-72
2021/12/14 04:30:40;;;;;;;8.57;5.90;;;6.60;99.90;;;;;;5063761;28;20025;-72
2021/12/14 04:33:12;;;;;;;9.57;5.43;;;6.60;99.90;;;;;;5066972;28;20031;-71
2021/12/14 04:35:41;;;;;;;9.80;5.68;;;6.60;99.90;;;;;;5061179;28;20024;-72
2021/12/14 04:38:18;;;;;;;9.13;5.88;;;6.60;99.90;;;;;;5066915;28;20063;-71
2021/12/14 04:52:02;;;;;;;8.63;4.72;;;6.70;99.90;;;;;;5072707;28;20039;-71
2021/12/14 04:54:43;;;;;;;6.65;4.35;;;6.70;99.90;;;;;;5061137;28;20385;-72
2021/12/14 04:57:46;;;;;;;8.02;4.22;;;6.70;99.90;;;;;;5067842;28;20050;-71
2021/12/14 05:00:23;;;;;;;10.30;5.75;;;6.70;99.90;;;;;;4987726;28;20617;-71
2021/12/14 05:02:50;;;;;;;9.05;5.07;;;6.70;99.90;;;;;;5057495;28;20917;-72
2021/12/14 05:05:21;;;;;;;9.68;5.57;;;6.70;99.90;;;;;;5066869;28;20097;-71
2021/12/14 05:10:43;;;;;;;9.07;5.43;;;6.70;99.90;;;;;;5066787;28;20026;-71
2021/12/14 05:13:09;;;;;;;8.70;5.43;;;6.70;99.90;;;;;;5073000;28;20024;-71
2021/12/14 05:15:41;;;;;;;9.68;6.28;;;6.70;99.90;;;;;;5069917;28;20042;-72
2021/12/14 05:18:15;;;;;;;10.05;5.30;;;6.70;99.90;;;;;;5065990;28;20043;-71
2021/12/14 05:20:45;;;;;;;9.48;5.43;;;6.70;99.90;;;;;;5060259;28;20021;-72
2021/12/14 05:23:22;;;;;;;9.23;5.22;;;6.70;99.90;;;;;;5066766;28;21505;-71
2021/12/14 05:25:49;;;;;;;10.30;5.60;;;6.60;99.90;;;;;;5063821;28;20028;-71
2021/12/14 05:28:18;;;;;;;8.27;5.55;;;6.60;99.90;;;;;;5063452;28;20054;-71
2021/12/14 05:30:51;;;;;;;8.73;5.07;;;6.70;99.90;;;;;;5062677;28;20665;-72
2021/12/14 05:33:22;;;;;;;9.10;5.40;;;6.70;99.90;;;;;;5071329;28;20020;-71
2021/12/14 05:35:54;;;;;;;8.80;5.35;;;6.70;99.90;;;;;;5061174;28;20660;-71
2021/12/14 05:38:29;;;;;;;7.15;4.93;;;6.70;99.90;;;;;;5070369;28;20031;-72
2021/12/14 05:41:08;;;;;;;8.60;5.40;;;6.70;99.90;;;;;;5071665;28;20020;-72
2021/12/14 05:43:34;;;;;;;8.88;5.55;;;6.80;99.90;;;;;;5065978;28;20408;-72
2021/12/14 05:46:04;;;;;;;8.60;5.53;;;6.80;99.90;;;;;;5075747;28;20020;-72
2021/12/14 05:48:34;;;;;;;9.02;5.22;;;6.80;99.90;;;;;;5065161;28;20025;-72
2021/12/14 05:51:10;;;;;;;7.47;4.82;;;6.80;99.90;;;;;;5067747;28;20047;-72
2021/12/14 05:53:43;;;;;;;7.93;5.40;;;6.80;99.90;;;;;;5065125;28;20036;-72
2021/12/14 05:56:22;;;;;;;7.75;4.60;;;6.80;99.90;;;;;;5063741;28;20082;-71
2021/12/14 05:58:52;;;;;;;8.48;5.15;;;6.80;99.90;;;;;;5062972;28;20028;-72
2021/12/14 06:01:21;;;;;;;8.00;4.70;;;6.80;99.90;;;;;;5064490;28;20020;-72
2021/12/14 06:03:53;;;;;;;7.53;4.68;;;6.80;99.90;;;;;;5065539;28;20043;-72
2021/12/14 06:06:29;;;;;;;6.70;4.65;;;6.80;99.90;;;;;;5070119;28;20028;-72
2021/12/14 06:09:33;;;;;;;6.95;4.65;;;6.80;99.90;;;;;;5073444;28;20016;-72
2021/12/14 06:12:17;;;;;;;7.15;3.90;;;6.80;99.90;;;;;;4989451;28;20025;-72
2021/12/14 06:14:55;;;;;;;7.15;4.60;;;6.80;99.90;;;;;;5061192;28;20101;-72
2021/12/14 06:17:40;;;;;;;8.80;5.53;;;6.90;99.90;;;;;;5071144;28;20162;-72
2021/12/14 06:20:09;;;;;;;6.88;4.47;;;6.80;99.90;;;;;;5068077;28;20008;-72
2021/12/14 06:22:35;;;;;;;7.65;4.63;;;6.90;99.90;;;;;;5060846;28;20100;-72
2021/12/14 06:25:08;;;;;;;7.53;4.82;;;6.80;99.90;;;;;;5063497;28;20042;-72
2021/12/14 06:27:34;;;;;;;7.72;5.10;;;6.90;99.90;;;;;;5063131;28;20031;-72
2021/12/14 06:30:08;;;;;;;7.53;4.78;;;6.90;99.90;;;;;;5067191;28;20662;-71
2021/12/14 06:32:41;;;;;;;9.82;6.15;;;6.80;99.90;;;;;;5059096;28;20038;-74
2021/12/14 06:35:30;;;;;;;15.25;6.10;;;6.80;99.90;;;;;;5093153;28;20041;-84
2021/12/14 06:40:45;;;;;;;9.30;6.13;;;7.00;99.90;;;;;;5104387;28;20028;-83
2021/12/14 06:43:27;;;;;;;9.15;5.53;;;6.90;99.90;;;;;;5111067;28;20036;-84
2021/12/14 06:46:11;;;;;;;9.48;6.22;;;7.10;99.90;;;;;;5106021;28;20036;-84
2021/12/14 06:48:56;;;;;;;13.85;6.18;;;7.20;99.90;;;;;;5109107;28;20028;-84
2021/12/14 06:55:27;;;;;;;10.27;5.80;;;7.20;99.90;;;;;;5112939;28;20027;-83
2021/12/14 06:58:18;;;;;;;11.88;6.38;;;7.20;99.90;;;;;;5105157;28;20031;-85
2021/12/14 07:01:07;;;;;;;9.48;5.90;;;7.20;99.90;;;;;;5084634;28;20051;-71
2021/12/14 07:03:49;;;;;;;10.23;5.88;;;7.30;99.90;;;;;;5064143;28;20100;-71
2021/12/14 07:06:26;;;;;;;10.10;5.50;;;7.20;99.90;;;;;;5068923;28;20101;-71
2021/12/14 07:08:53;;;;;;;9.80;5.82;;;7.20;99.90;;;;;;5068182;28;20025;-71
2021/12/14 07:11:21;;;;;;;9.43;5.65;;;7.10;99.90;;;;;;5061680;28;20048;-71
2021/12/14 07:13:47;;;;;;;9.52;5.57;;;7.10;99.90;;;;;;5070983;28;20473;-71
2021/12/14 07:16:23;;;;;;;8.82;5.53;;;7.10;99.90;;;;;;5062877;28;20032;-71
2021/12/14 07:18:53;;;;;;;8.90;5.38;;;7.20;99.90;;;;;;5063305;28;20035;-71
2021/12/14 07:21:43;;;;;;;9.52;5.57;;;7.20;99.90;;;;;;5062511;28;20020;-71
2021/12/14 07:24:23;;;;;;;9.82;6.20;;;7.10;99.90;;;;;;5061618;28;20024;-71
2021/12/14 07:27:10;;;;;;;9.40;5.30;;;7.10;99.90;;;;;;5063635;28;20481;-71
2021/12/14 07:29:36;;;;;;;10.13;6.18;;;7.10;99.90;;;;;;5065600;28;20033;-71
2021/12/14 07:32:02;;;;;;;8.00;4.70;;;7.10;99.90;;;;;;5058701;28;20085;-71
2021/12/14 07:34:28;;;;;;;7.93;4.53;;;7.20;99.90;;;;;;5072069;28;20539;-71
2021/12/14 07:36:54;;;;;;;8.47;5.10;;;7.20;99.90;;;;;;5064556;28;20036;-71
2021/12/14 07:39:20;;;;;;;9.27;5.83;;;7.20;99.90;;;;;;5067732;28;20493;-71
2021/12/14 07:41:52;;;;;;;8.90;5.38;;;7.20;99.90;;;;;;5060867;28;20273;-71
2021/12/14 07:44:22;;;;;;;8.95;5.45;;;7.20;99.90;;;;;;5058878;28;20028;-71
2021/12/14 07:46:55;;;;;;;8.75;5.32;;;7.20;99.90;;;;;;5074205;28;20033;-71
2021/12/14 07:49:56;;;;;;;7.57;5.28;;;7.30;99.90;;;;;;5059624;28;20614;-71
2021/12/14 07:52:35;;;;;;;8.73;5.22;;;7.30;99.90;;;;;;5059813;28;20048;-72
2021/12/14 07:55:11;;;;;;;7.55;5.03;;;7.40;99.90;;;;;;5064272;28;20027;-72
2021/12/14 07:57:38;;;;;;;9.60;5.23;;;7.40;99.90;;;;;;5069154;28;20032;-71
2021/12/14 08:00:21;;;;;;;8.80;5.50;;;7.50;99.90;;;;;;5064579;28;20457;-71
2021/12/14 08:02:51;;;;;;;8.95;5.00;;;7.40;99.90;;;;;;5069418;28;20060;-72
2021/12/14 08:05:22;;;;;;;11.85;5.32;;;7.40;99.90;;;;;;5062970;28;20043;-71
2021/12/14 08:07:58;;;;;;;8.73;5.28;;;7.40;99.90;;;;;;5061642;28;20498;-71
2021/12/14 08:10:33;;;;;;;8.45;5.05;;;7.40;99.90;;;;;;5067001;28;20033;-71
2021/12/14 08:13:13;;;;;;;8.07;5.50;;;7.40;99.90;;;;;;5070058;28;20039;-71
2021/12/14 08:15:40;;;;;;;8.35;5.32;;;7.40;99.90;;;;;;5074299;28;20415;-71
2021/12/14 08:18:11;;;;;;;8.98;5.43;;;7.40;99.90;;;;;;5063136;28;20024;-72
2021/12/14 08:20:43;;;;;;;8.88;5.20;;;7.50;99.90;;;;;;5069084;28;20030;-71
2021/12/14 08:23:31;;;;;;;24.27;12.65;;;7.50;99.90;;;;;;5065269;28;20051;-72
2021/12/14 08:26:29;;;;;;;16.35;8.45;;;7.50;99.90;;;;;;5057967;28;20021;-72
2021/12/14 08:29:03;;;;;;;15.43;8.75;;;7.50;99.90;;;;;;5059651;28;20560;-72
2021/12/14 08:31:38;;;;;;;9.32;5.25;;;7.50;99.90;;;;;;5064030;28;20028;-72
2021/12/14 08:34:07;;;;;;;7.28;4.97;;;7.50;99.90;;;;;;5069091;28;20098;-72
2021/12/14 08:36:40;;;;;;;9.73;5.38;;;7.40;99.90;;;;;;5062166;28;20025;-71
2021/12/14 08:39:12;;;;;;;9.77;5.63;;;7.40;99.90;;;;;;5062749;28;20015;-71
2021/12/14 08:41:47;;;;;;;8.85;5.03;;;7.50;99.90;;;;;;5065608;28;20020;-72
2021/12/14 08:44:20;;;;;;;9.32;5.65;;;7.40;99.90;;;;;;5069525;28;20532;-71
2021/12/14 08:46:49;;;;;;;9.98;5.47;;;7.40;99.90;;;;;;5065161;28;20028;-71
2021/12/14 08:49:16;;;;;;;10.35;5.53;;;7.40;99.90;;;;;;5058274;28;20462;-71
2021/12/14 08:51:47;;;;;;;10.18;6.00;;;7.40;99.90;;;;;;5063766;28;20024;-71
2021/12/14 08:54:25;;;;;;;10.35;6.10;;;7.40;99.90;;;;;;5060402;28;20032;-71
2021/12/14 08:56:53;;;;;;;9.85;5.72;;;7.40;99.90;;;;;;5081000;28;20029;-71
2021/12/14 08:59:19;;;;;;;10.98;6.03;;;7.40;99.90;;;;;;5064665;28;20025;-71
2021/12/14 09:01:48;;;;;;;11.90;5.47;;;7.50;99.90;;;;;;5060750;28;20074;-71
2021/12/14 09:04:18;;;;;;;9.65;5.68;;;7.50;99.90;;;;;;5068081;28;20037;-71
2021/12/14 09:06:47;;;;;;;9.30;5.10;;;7.50;99.90;;;;;;5063325;28;20021;-71
2021/12/14 09:09:17;;;;;;;8.20;5.72;;;7.50;99.90;;;;;;5061228;28;20028;-72
2021/12/14 09:11:47;;;;;;;8.88;5.43;;;7.60;99.90;;;;;;5067132;28;20035;-71
2021/12/14 09:14:17;;;;;;;7.80;4.60;;;7.60;99.90;;;;;;5058359;28;20056;-72
2021/12/14 09:16:47;;;;;;;9.52;5.30;;;7.60;99.90;;;;;;5073386;28;20294;-72
2021/12/14 09:19:21;;;;;;;8.32;5.05;;;7.60;99.90;;;;;;5063189;28;20381;-71
2021/12/14 09:21:51;;;;;;;7.90;5.30;;;7.60;99.90;;;;;;5064888;28;20039;-71
2021/12/14 09:24:21;;;;;;;8.65;4.75;;;7.60;99.90;;;;;;5063021;28;20027;-71
2021/12/14 09:26:52;;;;;;;8.32;5.28;;;7.60;99.90;;;;;;5062290;28;20055;-72
2021/12/14 09:29:21;;;;;;;8.52;5.57;;;7.60;99.90;;;;;;5064880;28;20032;-72
2021/12/14 09:31:50;;;;;;;8.35;5.20;;;7.60;99.90;;;;;;5055749;28;20507;-72
2021/12/14 09:34:20;;;;;;;8.80;5.25;;;7.60;99.90;;;;;;5069399;28;20712;-72
2021/12/14 09:36:47;;;;;;;8.98;5.35;;;7.70;99.90;;;;;;5061516;28;20943;-72
2021/12/14 09:39:35;;;;;;;9.73;5.68;;;7.60;99.90;;;;;;5070287;28;20027;-72
2021/12/14 09:42:07;;;;;;;8.65;5.80;;;7.70;99.90;;;;;;5067313;28;20028;-72
2021/12/14 09:44:35;;;;;;;9.27;5.47;;;7.80;99.90;;;;;;5068353;28;20032;-72
2021/12/14 09:47:08;;;;;;;8.77;4.85;;;7.80;99.90;;;;;;5071831;28;20024;-72
2021/12/14 09:49:42;;;;;;;6.10;4.22;;;7.80;99.90;;;;;;5065232;28;20027;-72
2021/12/14 09:52:14;;;;;;;8.63;5.45;;;7.90;99.90;;;;;;5062557;28;20027;-72
2021/12/14 09:54:42;;;;;;;8.43;4.72;;;7.90;99.90;;;;;;5070310;28;20393;-72
2021/12/14 09:57:17;;;;;;;6.72;4.35;;;8.00;99.90;;;;;;5070933;28;20027;-72
2021/12/14 09:59:43;;;;;;;7.30;4.57;;;8.00;99.90;;;;;;5060818;28;20028;-71
2021/12/14 10:02:16;;;;;;;7.47;4.35;;;8.10;99.90;;;;;;5061289;28;20016;-71
2021/12/14 10:04:49;;;;;;;7.82;4.75;;;8.10;99.90;;;;;;5069298;28;20020;-71
2021/12/14 10:07:16;;;;;;;7.30;4.70;;;8.20;99.90;;;;;;5072336;28;20028;-71
2021/12/14 10:09:47;;;;;;;9.25;4.93;;;8.20;99.90;;;;;;5068136;28;20024;-71
2021/12/14 10:14:50;;;;;;;8.18;4.90;;;8.40;99.90;;;;;;5066496;28;20040;-72
2021/12/14 10:17:22;;;;;;;6.78;4.07;;;8.50;99.90;;;;;;5071482;28;20055;-71
2021/12/14 10:19:49;;;;;;;6.43;4.13;;;8.60;99.90;;;;;;5059772;28;20016;-71
2021/12/14 10:22:23;;;;;;;6.53;4.38;;;8.80;99.90;;;;;;5071834;28;20024;-72
2021/12/14 10:24:51;;;;;;;7.18;4.25;;;8.80;99.90;;;;;;5063482;28;20034;-72
2021/12/14 10:27:19;;;;;;;6.65;4.30;;;9.00;99.90;;;;;;5069463;28;20769;-72
2021/12/14 10:29:45;;;;;;;6.88;4.40;;;9.00;99.90;;;;;;5057730;28;20024;-71
2021/12/14 10:32:20;;;;;;;4.60;3.53;;;9.00;99.90;;;;;;5065027;28;20503;-72
2021/12/14 10:34:54;;;;;;;5.80;3.78;;;9.00;99.90;;;;;;5066676;28;20028;-71
2021/12/14 10:37:37;;;;;;;5.15;3.38;;;9.00;99.90;;;;;;5069215;28;20034;-72
2021/12/14 10:43:05;;;;;;;6.40;4.13;;;8.90;99.90;;;;;;5068547;28;20027;-72
2021/12/14 10:45:31;;;;;;;6.32;3.92;;;8.90;99.90;;;;;;5069548;28;20552;-71
2021/12/14 10:47:57;;;;;;;4.95;3.17;;;8.90;99.90;;;;;;5067874;28;20066;-71
2021/12/14 10:50:27;;;;;;;6.00;3.78;;;9.00;99.90;;;;;;5066949;28;20082;-72
2021/12/14 10:52:54;;;;;;;6.25;3.70;;;9.00;99.90;;;;;;5065569;28;20031;-72
2021/12/14 10:55:23;;;;;;;;;;;9.10;99.90;;;;;;5064552;28;20024;-71
2021/12/14 10:57:49;;;;;;;5.50;3.75;;;9.10;99.90;;;;;;5061013;28;21895;-72
2021/12/14 11:00:38;;;;;;;;;;;9.10;99.90;;;;;;5064746;28;20634;-71
2021/12/14 11:03:11;;;;;;;6.30;4.25;;;9.10;99.90;;;;;;5059799;28;19911;-72
2021/12/14 11:05:40;;;;;;;5.95;3.83;;;9.00;99.90;;;;;;5060999;28;20025;-72
2021/12/14 11:08:19;;;;;;;4.93;3.25;;;9.00;99.90;;;;;;5066743;28;20355;-71
2021/12/14 11:10:46;;;;;;;6.53;3.92;;;8.90;99.90;;;;;;5058747;28;20021;-71
2021/12/14 11:13:13;;;;;;;6.85;4.05;;;8.90;99.90;;;;;;5068440;28;20699;-72
2021/12/14 11:15:49;;;;;;;6.07;3.90;;;8.80;99.90;;;;;;5069023;28;20635;-72
2021/12/14 11:18:18;;;;;;;6.25;3.63;;;8.80;99.90;;;;;;5067200;28;20115;-72
2021/12/14 11:20:53;;;;;;;4.60;3.42;;;8.80;99.90;;;;;;5058126;28;20108;-72
2021/12/14 11:23:34;;;;;;;4.80;3.38;;;8.80;99.90;;;;;;5065194;28;20054;-71
2021/12/14 11:26:15;;;;;;;4.63;3.25;;;8.90;99.90;;;;;;5063041;28;20103;-71
2021/12/14 11:28:46;;;;;;;3.97;2.75;;;8.90;99.90;;;;;;5064791;28;20023;-72
2021/12/14 11:31:16;;;;;;;5.35;3.08;;;8.90;99.90;;;;;;5068493;28;20068;-72
2021/12/14 11:33:47;;;;;;;5.00;3.35;;;8.90;99.90;;;;;;5060058;28;21041;-71
2021/12/14 11:36:16;;;;;;;4.60;3.05;;;9.00;99.90;;;;;;5060176;28;20119;-71
2021/12/14 11:38:56;;;;;;;4.95;3.53;;;9.00;99.90;;;;;;5063852;28;20061;-71
2021/12/14 11:41:29;;;;;;;4.45;3.28;;;9.00;99.90;;;;;;5068535;28;20081;-71
2021/12/14 11:44:07;;;;;;;4.55;3.03;;;9.00;99.90;;;;;;5071672;28;20040;-71
2021/12/14 11:46:46;;;;;;;4.85;3.08;;;9.00;99.90;;;;;;5067150;28;20059;-71
2021/12/14 11:49:12;;;;;;;4.57;2.90;;;9.00;99.90;;;;;;5062408;28;20028;-72
2021/12/14 11:51:41;;;;;;;6.43;3.07;;;9.10;99.90;;;;;;5056568;28;20074;-72
2021/12/14 11:54:08;;;;;;;4.20;2.88;;;9.20;99.90;;;;;;5066749;28;20491;-71
2021/12/14 11:56:34;;;;;;;4.25;2.90;;;9.20;99.90;;;;;;5061600;28;20111;-71
2021/12/14 11:59:07;;;;;;;4.67;2.87;;;9.30;99.90;;;;;;5061553;28;20103;-71
2021/12/14 12:01:46;;;;;;;3.95;2.88;;;9.30;99.90;;;;;;5059054;28;20837;-72
2021/12/14 12:04:23;;;;;;;4.13;2.92;;;9.30;99.90;;;;;;5064769;28;20084;-71
2021/12/14 12:09:37;;;;;;;3.00;2.65;;;9.40;99.90;;;;;;5065270;28;20639;-71
2021/12/14 12:12:06;;;;;;;5.00;2.80;;;9.40;99.90;;;;;;5060118;28;20015;-71
2021/12/14 12:14:52;;;;;;;4.00;2.70;;;9.50;99.90;;;;;;5065687;28;20027;-71
2021/12/14 12:17:37;;;;;;;3.97;2.75;;;9.40;99.90;;;;;;5060744;28;20082;-71
2021/12/14 12:20:18;;;;;;;5.13;3.08;;;9.40;99.90;;;;;;5060622;28;20089;-72
2021/12/14 12:22:57;;;;;;;3.30;2.42;;;9.50;99.90;;;;;;5062705;28;20016;-72
2021/12/14 12:25:38;;;;;;;4.10;2.97;;;9.50;99.90;;;;;;5060223;28;20020;-71
2021/12/14 12:28:09;;;;;;;4.90;2.75;;;9.50;99.90;;;;;;5060365;28;20407;-72
2021/12/14 12:30:39;;;;;;;4.13;2.72;;;9.50;99.90;;;;;;5066950;28;20373;-72
2021/12/14 12:33:31;;;;;;;3.92;2.75;;;9.60;99.90;;;;;;5067052;28;20028;-72
2021/12/14 12:35:59;;;;;;;4.45;3.13;;;9.70;99.90;;;;;;5064654;28;20411;-72
2021/12/14 12:38:34;;;;;;;3.90;2.53;;;9.70;99.90;;;;;;5063934;28;20553;-72
2021/12/14 12:41:09;;;;;;;4.35;2.60;;;9.70;99.90;;;;;;5061249;28;20466;-71
2021/12/14 12:43:48;;;;;;;3.30;2.40;;;9.90;99.90;;;;;;5064073;28;20063;-72
2021/12/14 12:46:44;;;;;;;3.15;2.35;;;9.80;99.90;;;;;;5074430;28;20024;-72
2021/12/14 12:49:23;;;;;;;2.80;2.35;;;9.90;99.90;;;;;;5057822;28;20031;-72
2021/12/14 12:51:56;;;;;;;3.03;2.35;;;9.90;99.90;;;;;;5058161;28;20029;-72
2021/12/14 12:54:57;;;;;;;4.03;2.90;;;9.90;99.90;;;;;;5067230;28;20090;-72
2021/12/14 12:57:47;;;;;;;2.55;1.98;;;9.80;99.90;;;;;;5048211;28;20105;-72
2021/12/14 13:00:34;;;;;;;4.13;2.97;;;9.80;99.90;;;;;;5068705;28;20034;-72
2021/12/14 13:03:04;;;;;;;;;;;9.80;99.90;;;;;;5071001;28;20091;-72
2021/12/14 13:05:46;;;;;;;4.57;2.72;;;9.90;99.90;;;;;;5064637;28;19915;-71
2021/12/14 13:08:20;;;;;;;3.50;2.65;;;9.90;99.90;;;;;;5065595;28;20577;-72
2021/12/14 13:10:59;;;;;;;3.83;2.60;;;9.90;99.90;;;;;;5065560;28;20017;-72
2021/12/14 13:13:28;;;;;;;3.45;2.45;;;10.00;99.90;;;;;;5067935;28;20018;-72
2021/12/14 13:16:08;;;;;;;5.00;2.80;;;10.10;99.90;;;;;;5068883;28;20059;-72
2021/12/14 13:18:39;;;;;;;4.55;2.40;;;10.10;99.90;;;;;;5063199;28;20089;-72
2021/12/14 13:21:36;;;;;;;4.40;3.20;;;10.10;99.90;;;;;;5069091;28;20012;-72
2021/12/14 13:24:10;;;;;;;4.28;3.28;;;10.10;99.90;;;;;;5068266;28;20417;-71
2021/12/14 13:26:45;;;;;;;3.55;2.45;;;10.10;99.90;;;;;;5059349;28;20059;-72
2021/12/14 13:29:11;;;;;;;3.70;2.25;;;10.10;99.90;;;;;;5071971;28;20031;-72
2021/12/14 13:31:39;;;;;;;3.73;2.73;;;10.10;99.90;;;;;;5061330;28;20378;-72
2021/12/14 13:34:09;;;;;;;3.92;2.67;;;10.00;99.90;;;;;;5075774;28;20024;-72
2021/12/14 13:36:35;;;;;;;3.85;2.40;;;10.00;99.90;;;;;;5063055;28;20667;-72
2021/12/14 13:39:06;;;;;;;3.10;2.60;;;10.00;99.90;;;;;;5070388;28;20418;-72
2021/12/14 13:41:56;;;;;;;4.00;2.67;;;9.90;99.90;;;;;;5068603;28;20024;-72
2021/12/14 13:44:23;;;;;;;3.35;2.22;;;9.90;99.90;;;;;;5070199;28;20074;-72
2021/12/14 13:46:49;;;;;;;3.95;2.70;;;9.80;99.90;;;;;;5075819;28;20043;-72
2021/12/14 13:49:15;;;;;;;4.10;1.97;;;9.80;99.90;;;;;;5070711;28;20380;-71
2021/12/14 13:51:43;;;;;;;;;;;9.70;99.90;;;;;;5070440;28;20028;-72
2021/12/14 13:54:09;;;;;;;2.78;2.28;;;9.70;99.90;;;;;;5068188;28;19908;-72
2021/12/14 13:56:38;;;;;;;4.03;2.42;;;9.60;99.90;;;;;;5061825;28;20044;-72
2021/12/14 13:59:06;;;;;;;4.05;2.40;;;9.60;99.90;;;;;;5069035;28;20016;-71